createdAt,value
2023-02-25T00:00:37.009Z,7.17
2023-02-25T00:01:38.837Z,7.13
2023-02-25T00:02:40.726Z,7.13
2023-02-25T00:03:42.780Z,7.15
2023-02-25T00:04:44.739Z,7.17
2023-02-25T00:05:46.502Z,7.18
2023-02-25T00:06:48.286Z,7.17
2023-02-25T00:07:50.144Z,7.19
2023-02-25T00:08:52.720Z,7.22
2023-02-25T00:09:54.559Z,7.24
2023-02-25T00:10:57.106Z,7.21
2023-02-25T00:11:59.007Z,7.18
2023-02-25T00:13:15.962Z,7.16
2023-02-25T00:14:19.372Z,7.17
2023-02-25T00:15:21.238Z,7.15
2023-02-25T00:16:23.876Z,7.10
2023-02-25T00:17:26.022Z,7.08
2023-02-25T00:18:28.483Z,7.07
2023-02-25T00:19:30.310Z,7.06
2023-02-25T00:20:32.110Z,7.04
2023-02-25T00:21:33.990Z,7.04
2023-02-25T00:22:36.419Z,7.01
2023-02-25T00:23:38.909Z,7.03
2023-02-25T00:24:40.734Z,6.99
2023-02-25T00:25:42.711Z,6.96
2023-02-25T00:26:44.976Z,6.98
2023-02-25T00:27:46.766Z,6.94
2023-02-25T00:28:49.175Z,6.93
2023-02-25T00:29:54.111Z,6.92
2023-02-25T00:30:56.063Z,6.92
2023-02-25T00:31:58.124Z,6.86
2023-02-25T00:33:00.104Z,6.85
2023-02-25T00:34:01.988Z,6.85
2023-02-25T00:35:04.136Z,6.86
2023-02-25T00:36:06.830Z,6.87
2023-02-25T00:37:08.582Z,6.90
2023-02-25T00:38:16.037Z,6.88
2023-02-25T00:39:18.204Z,6.91
2023-02-25T00:40:20.016Z,6.91
2023-02-25T00:41:23.217Z,6.93
2023-02-25T00:42:25.041Z,6.89
2023-02-25T00:43:26.838Z,6.90
2023-02-25T00:44:28.656Z,6.91
2023-02-25T00:45:30.450Z,6.92
2023-02-25T00:46:32.994Z,6.89
2023-02-25T00:47:34.827Z,6.87
2023-02-25T00:48:37.306Z,6.87
2023-02-25T00:49:39.183Z,6.88
2023-02-25T00:50:40.997Z,6.89
2023-02-25T00:51:42.829Z,6.90
2023-02-25T00:52:46.751Z,6.85
2023-02-25T00:53:48.879Z,6.84
2023-02-25T00:54:50.736Z,6.86
2023-02-25T00:55:58.586Z,6.86
2023-02-25T00:57:00.437Z,6.82
2023-02-25T00:58:02.429Z,6.80
2023-02-25T00:59:04.158Z,6.80
2023-02-25T01:00:16.446Z,6.78
2023-02-25T01:01:18.333Z,6.75
2023-02-25T01:02:20.184Z,6.74
2023-02-25T01:03:22.056Z,6.72
2023-02-25T01:04:24.054Z,6.66
2023-02-25T01:05:26.011Z,6.65
2023-02-25T01:06:28.266Z,6.61
2023-02-25T01:07:30.170Z,6.60
2023-02-25T01:08:31.963Z,6.56
2023-02-25T01:09:33.803Z,6.53
2023-02-25T01:10:35.532Z,6.50
2023-02-25T01:11:37.452Z,6.50
2023-02-25T01:12:39.353Z,6.46
2023-02-25T01:13:41.362Z,6.41
2023-02-25T01:14:45.001Z,6.39
2023-02-25T01:15:47.000Z,6.43
2023-02-25T01:16:49.844Z,6.44
2023-02-25T01:17:51.620Z,6.39
2023-02-25T01:18:54.518Z,6.32
2023-02-25T01:19:58.104Z,6.29
2023-02-25T01:21:00.745Z,6.26
2023-02-25T01:22:02.673Z,6.28
2023-02-25T01:23:04.454Z,6.33
2023-02-25T01:24:07.842Z,6.37
2023-02-25T01:25:14.324Z,6.38
2023-02-25T01:26:16.269Z,6.43
2023-02-25T01:27:18.149Z,6.43
2023-02-25T01:28:20.108Z,6.41
2023-02-25T01:29:26.700Z,6.45
2023-02-25T01:30:28.540Z,6.46
2023-02-25T01:31:31.835Z,6.44
2023-02-25T01:32:33.794Z,6.30
2023-02-25T01:33:38.825Z,6.27
2023-02-25T01:34:41.227Z,6.30
2023-02-25T01:35:42.997Z,6.27
2023-02-25T01:36:46.234Z,6.20
2023-02-25T01:37:50.146Z,6.24
2023-02-25T01:38:52.074Z,6.21
2023-02-25T01:39:54.171Z,6.26
2023-02-25T01:41:00.181Z,6.28
2023-02-25T01:42:03.798Z,6.29
2023-02-25T01:43:05.935Z,6.28
2023-02-25T01:44:12.725Z,6.30
2023-02-25T01:45:15.451Z,6.33
2023-02-25T01:46:17.253Z,6.27
2023-02-25T01:47:20.397Z,6.25
2023-02-25T01:48:27.372Z,6.25
2023-02-25T01:49:34.585Z,6.20
2023-02-25T01:50:40.037Z,6.22
2023-02-25T01:51:42.556Z,6.19
2023-02-25T01:52:45.495Z,6.19
2023-02-25T01:53:47.620Z,6.18
2023-02-25T01:54:51.887Z,6.17
2023-02-25T01:55:53.996Z,6.17
2023-02-25T01:56:56.667Z,6.10
2023-02-25T01:58:00.206Z,6.10
2023-02-25T01:59:02.615Z,6.09
2023-02-25T02:00:16.499Z,6.06
2023-02-25T02:01:20.420Z,6.08
2023-02-25T02:02:23.539Z,6.06
2023-02-25T02:03:27.557Z,6.04
2023-02-25T02:04:30.522Z,6.03
2023-02-25T02:05:39.109Z,5.98
2023-02-25T02:06:42.789Z,5.92
2023-02-25T02:07:44.705Z,5.95
2023-02-25T02:08:46.697Z,5.94
2023-02-25T02:09:57.702Z,5.96
2023-02-25T02:10:59.722Z,5.95
2023-02-25T02:12:03.603Z,5.95
2023-02-25T02:13:05.597Z,6.01
2023-02-25T02:14:09.604Z,6.00
2023-02-25T02:15:13.167Z,5.92
2023-02-25T02:16:14.976Z,5.92
2023-02-25T02:17:22.871Z,5.91
2023-02-25T02:18:25.753Z,5.85
2023-02-25T02:19:47.841Z,5.84
2023-02-25T02:21:06.083Z,5.88
2023-02-25T02:22:07.854Z,5.94
2023-02-25T02:23:24.718Z,5.98
2023-02-25T02:24:45.984Z,5.98
2023-02-25T02:26:06.446Z,5.89
2023-02-25T02:27:11.467Z,5.91
2023-02-25T02:28:22.805Z,5.84
2023-02-25T02:29:39.603Z,5.81
2023-02-25T02:31:04.159Z,5.76
2023-02-25T02:32:22.464Z,5.76
2023-02-25T02:33:29.863Z,5.73
2023-02-25T02:34:34.383Z,5.70
2023-02-25T02:35:41.307Z,5.65
2023-02-25T02:36:46.077Z,5.63
2023-02-25T02:37:57.438Z,5.62
2023-02-25T02:39:08.635Z,5.54
2023-02-25T02:40:28.971Z,5.52
2023-02-25T02:41:35.440Z,5.54
2023-02-25T02:42:41.221Z,5.55
2023-02-25T02:43:50.734Z,5.54
2023-02-25T02:44:56.941Z,5.48
2023-02-25T02:46:01.481Z,5.45
2023-02-25T02:47:05.963Z,5.41
2023-02-25T02:48:10.467Z,5.35
2023-02-25T02:49:24.098Z,5.33
2023-02-25T02:50:34.452Z,5.36
2023-02-25T02:51:41.867Z,5.23
2023-02-25T02:52:46.549Z,5.21
2023-02-25T02:53:53.788Z,5.22
2023-02-25T02:55:00.290Z,5.22
2023-02-25T02:56:04.650Z,5.21
2023-02-25T02:57:08.694Z,5.23
2023-02-25T02:58:26.118Z,5.21
2023-02-25T02:59:36.837Z,5.25
2023-02-25T03:00:41.570Z,5.27
2023-02-25T03:01:51.931Z,5.25
2023-02-25T03:03:07.473Z,5.23
2023-02-25T03:04:12.763Z,5.27
2023-02-25T03:05:17.451Z,5.26
2023-02-25T03:06:22.478Z,5.21
2023-02-25T03:07:24.829Z,5.17
2023-02-25T03:08:28.999Z,5.13
2023-02-25T03:09:33.889Z,5.12
2023-02-25T03:10:35.802Z,5.08
2023-02-25T03:11:37.719Z,5.07
2023-02-25T03:12:39.618Z,5.01
2023-02-25T03:13:41.824Z,4.90
2023-02-25T03:14:43.858Z,4.83
2023-02-25T03:15:46.817Z,4.82
2023-02-25T03:16:53.808Z,4.75
2023-02-25T03:17:59.370Z,4.73
2023-02-25T03:19:07.087Z,4.75
2023-02-25T03:20:08.935Z,4.76
2023-02-25T03:21:15.426Z,4.83
2023-02-25T03:22:20.057Z,4.85
2023-02-25T03:23:23.412Z,4.78
2023-02-25T03:24:32.149Z,4.74
2023-02-25T03:25:36.788Z,4.76
2023-02-25T03:26:38.831Z,4.67
2023-02-25T03:27:42.897Z,4.43
2023-02-25T03:28:46.096Z,4.25
2023-02-25T03:29:48.639Z,4.25
2023-02-25T03:30:57.230Z,4.33
2023-02-25T03:32:09.895Z,4.45
2023-02-25T03:33:14.985Z,4.38
2023-02-25T03:34:20.231Z,4.38
2023-02-25T03:35:23.705Z,4.40
2023-02-25T03:36:29.242Z,4.43
2023-02-25T03:37:32.930Z,4.53
2023-02-25T03:38:38.172Z,4.55
2023-02-25T03:39:42.048Z,4.55
2023-02-25T03:40:43.906Z,4.46
2023-02-25T03:41:47.132Z,4.45
2023-02-25T03:42:54.122Z,4.51
2023-02-25T03:43:57.357Z,4.57
2023-02-25T03:45:01.120Z,4.60
2023-02-25T03:46:03.543Z,4.60
2023-02-25T03:47:09.404Z,4.60
2023-02-25T03:48:12.031Z,4.65
2023-02-25T03:49:16.916Z,4.71
2023-02-25T03:50:27.778Z,4.71
2023-02-25T03:51:31.864Z,4.72
2023-02-25T03:52:33.785Z,4.71
2023-02-25T03:53:35.955Z,4.77
2023-02-25T03:54:38.074Z,4.80
2023-02-25T03:55:40.041Z,4.82
2023-02-25T03:56:46.160Z,4.78
2023-02-25T03:57:49.932Z,4.73
2023-02-25T03:58:51.766Z,4.78
2023-02-25T03:59:56.631Z,4.83
2023-02-25T04:00:58.718Z,4.86
2023-02-25T04:02:01.252Z,4.90
2023-02-25T04:03:03.810Z,4.92
2023-02-25T04:04:06.232Z,4.93
2023-02-25T04:05:09.036Z,4.88
2023-02-25T04:06:12.365Z,4.81
2023-02-25T04:07:14.242Z,4.83
2023-02-25T04:08:16.295Z,4.82
2023-02-25T04:09:18.773Z,4.60
2023-02-25T04:10:20.968Z,4.46
2023-02-25T04:11:22.760Z,4.39
2023-02-25T04:12:24.532Z,4.34
2023-02-25T04:13:26.385Z,4.41
2023-02-25T04:14:28.144Z,4.46
2023-02-25T04:15:30.021Z,4.47
2023-02-25T04:16:32.106Z,4.43
2023-02-25T04:17:34.614Z,4.46
2023-02-25T04:18:36.484Z,4.48
2023-02-25T04:19:38.283Z,4.50
2023-02-25T04:20:41.174Z,4.47
2023-02-25T04:21:42.933Z,4.41
2023-02-25T04:22:44.839Z,4.44
2023-02-25T04:23:46.596Z,4.49
2023-02-25T04:24:48.416Z,4.42
2023-02-25T04:25:50.204Z,4.27
2023-02-25T04:26:58.672Z,4.11
2023-02-25T04:28:00.560Z,4.03
2023-02-25T04:29:02.641Z,4.07
2023-02-25T04:30:04.930Z,4.12
2023-02-25T04:31:06.956Z,4.09
2023-02-25T04:32:09.513Z,4.07
2023-02-25T04:33:12.162Z,4.08
2023-02-25T04:34:14.157Z,4.17
2023-02-25T04:35:16.060Z,4.20
2023-02-25T04:36:26.315Z,4.19
2023-02-25T04:37:28.677Z,4.22
2023-02-25T04:38:30.544Z,4.27
2023-02-25T04:39:32.945Z,4.35
2023-02-25T04:40:35.062Z,4.39
2023-02-25T04:41:36.911Z,4.37
2023-02-25T04:42:39.000Z,4.41
2023-02-25T04:43:40.864Z,4.45
2023-02-25T04:44:42.650Z,4.50
2023-02-25T04:45:44.459Z,4.56
2023-02-25T04:46:46.313Z,4.59
2023-02-25T04:47:48.141Z,4.66
2023-02-25T04:48:50.040Z,4.68
2023-02-25T04:49:51.799Z,4.67
2023-02-25T04:50:53.573Z,4.63
2023-02-25T04:51:55.404Z,4.63
2023-02-25T04:52:59.478Z,4.60
2023-02-25T04:54:01.313Z,4.54
2023-02-25T04:55:03.254Z,4.47
2023-02-25T04:56:05.822Z,4.44
2023-02-25T04:57:08.314Z,4.39
2023-02-25T04:58:10.110Z,4.43
2023-02-25T04:59:12.300Z,4.45
2023-02-25T05:00:19.412Z,4.48
2023-02-25T05:01:21.217Z,4.51
2023-02-25T05:02:23.211Z,4.53
2023-02-25T05:03:25.887Z,4.56
2023-02-25T05:04:27.909Z,4.60
2023-02-25T05:05:29.632Z,4.64
2023-02-25T05:06:31.416Z,4.60
2023-02-25T05:07:33.135Z,4.54
2023-02-25T05:08:35.446Z,4.56
2023-02-25T05:09:37.295Z,4.50
2023-02-25T05:10:39.075Z,4.47
2023-02-25T05:11:40.850Z,4.47
2023-02-25T05:12:42.827Z,4.50
2023-02-25T05:13:44.588Z,4.51
2023-02-25T05:14:46.552Z,4.50
2023-02-25T05:15:48.723Z,4.50
2023-02-25T05:16:50.793Z,4.52
2023-02-25T05:17:52.609Z,4.54
2023-02-25T05:18:54.458Z,4.60
2023-02-25T05:19:56.363Z,4.63
2023-02-25T05:20:58.161Z,4.67
2023-02-25T05:22:00.068Z,4.63
2023-02-25T05:23:01.951Z,4.61
2023-02-25T05:24:04.331Z,4.63
2023-02-25T05:25:07.690Z,4.61
2023-02-25T05:26:10.139Z,4.56
2023-02-25T05:27:12.034Z,4.51
2023-02-25T05:28:13.888Z,4.45
2023-02-25T05:29:15.639Z,4.40
2023-02-25T05:30:17.816Z,4.34
2023-02-25T05:31:19.956Z,4.39
2023-02-25T05:32:22.343Z,4.45
2023-02-25T05:33:24.604Z,4.41
2023-02-25T05:34:26.436Z,4.42
2023-02-25T05:35:28.254Z,4.43
2023-02-25T05:36:30.639Z,4.43
2023-02-25T05:37:32.753Z,4.40
2023-02-25T05:38:34.837Z,4.43
2023-02-25T05:39:36.630Z,4.43
2023-02-25T05:40:42.168Z,4.49
2023-02-25T05:41:43.914Z,4.54
2023-02-25T05:42:49.646Z,4.56
2023-02-25T05:43:51.468Z,4.61
2023-02-25T05:44:53.245Z,4.61
2023-02-25T05:45:55.911Z,4.64
2023-02-25T05:46:57.969Z,4.66
2023-02-25T05:48:00.168Z,4.67
2023-02-25T05:49:01.962Z,4.68
2023-02-25T05:50:04.020Z,4.69
2023-02-25T05:51:07.401Z,4.70
2023-02-25T05:52:09.790Z,4.66
2023-02-25T05:53:11.579Z,4.66
2023-02-25T05:54:13.317Z,4.65
2023-02-25T05:55:16.465Z,4.60
2023-02-25T05:56:20.841Z,4.59
2023-02-25T05:57:24.140Z,4.61
2023-02-25T05:58:26.072Z,4.63
2023-02-25T05:59:27.924Z,4.67
2023-02-25T06:00:29.696Z,4.64
2023-02-25T06:01:32.072Z,4.61
2023-02-25T06:02:33.819Z,4.59
2023-02-25T06:03:35.669Z,4.58
2023-02-25T06:04:37.428Z,4.56
2023-02-25T06:05:44.618Z,4.53
2023-02-25T06:06:50.473Z,4.55
2023-02-25T06:07:52.329Z,4.54
2023-02-25T06:08:54.329Z,4.54
2023-02-25T06:10:00.251Z,4.54
2023-02-25T06:11:02.487Z,4.54
2023-02-25T06:12:04.459Z,4.52
2023-02-25T06:13:07.208Z,4.46
2023-02-25T06:14:08.935Z,4.42
2023-02-25T06:15:10.957Z,4.44
2023-02-25T06:16:12.951Z,4.44
2023-02-25T06:17:14.908Z,4.41
2023-02-25T06:18:16.684Z,4.43
2023-02-25T06:19:18.524Z,4.42
2023-02-25T06:20:20.294Z,4.43
2023-02-25T06:21:22.113Z,4.43
2023-02-25T06:22:23.997Z,4.48
2023-02-25T06:23:25.816Z,4.50
2023-02-25T06:24:27.695Z,4.55
2023-02-25T06:25:30.167Z,4.54
2023-02-25T06:26:32.057Z,4.48
2023-02-25T06:27:33.864Z,4.51
2023-02-25T06:28:36.303Z,4.46
2023-02-25T06:29:41.870Z,4.45
2023-02-25T06:30:43.760Z,4.45
2023-02-25T06:31:45.949Z,4.34
2023-02-25T06:32:47.852Z,4.24
2023-02-25T06:33:53.625Z,4.23
2023-02-25T06:34:55.380Z,4.23
2023-02-25T06:35:57.142Z,4.18
2023-02-25T06:36:59.165Z,4.16
2023-02-25T06:38:01.027Z,4.18
2023-02-25T06:39:02.900Z,4.24
2023-02-25T06:40:05.519Z,4.28
2023-02-25T06:41:08.485Z,4.28
2023-02-25T06:42:10.552Z,4.25
2023-02-25T06:43:12.331Z,4.25
2023-02-25T06:44:15.789Z,4.27
2023-02-25T06:45:17.774Z,4.21
2023-02-25T06:46:24.593Z,4.23
2023-02-25T06:47:26.855Z,4.30
2023-02-25T06:48:28.652Z,4.30
2023-02-25T06:49:31.237Z,4.31
2023-02-25T06:50:33.605Z,4.32
2023-02-25T06:51:35.432Z,4.30
2023-02-25T06:52:37.153Z,4.34
2023-02-25T06:53:39.996Z,4.35
2023-02-25T06:54:42.000Z,4.39
2023-02-25T06:55:43.815Z,4.34
2023-02-25T06:56:45.636Z,4.30
2023-02-25T06:57:47.493Z,4.28
2023-02-25T06:58:49.763Z,4.30
2023-02-25T06:59:53.592Z,4.36
2023-02-25T07:00:55.461Z,4.34
2023-02-25T07:01:57.233Z,4.31
2023-02-25T07:02:59.083Z,4.34
2023-02-25T07:04:01.031Z,4.38
2023-02-25T07:05:03.358Z,4.37
2023-02-25T07:06:05.674Z,4.31
2023-02-25T07:07:08.297Z,4.22
2023-02-25T07:08:10.112Z,4.11
2023-02-25T07:09:11.986Z,4.06
2023-02-25T07:10:13.818Z,4.09
2023-02-25T07:11:27.360Z,4.16
2023-02-25T07:12:29.618Z,4.21
2023-02-25T07:13:31.458Z,4.27
2023-02-25T07:14:33.292Z,4.32
2023-02-25T07:15:35.445Z,4.37
2023-02-25T07:16:37.374Z,4.41
2023-02-25T07:17:39.205Z,4.35
2023-02-25T07:18:41.826Z,4.24
2023-02-25T07:19:43.655Z,4.16
2023-02-25T07:20:45.487Z,4.10
2023-02-25T07:21:47.270Z,4.05
2023-02-25T07:22:49.242Z,4.06
2023-02-25T07:23:51.158Z,4.08
2023-02-25T07:24:53.169Z,4.06
2023-02-25T07:25:55.001Z,4.11
2023-02-25T07:26:56.967Z,4.10
2023-02-25T07:27:58.756Z,4.04
2023-02-25T07:29:00.593Z,3.96
2023-02-25T07:30:02.561Z,3.79
2023-02-25T07:31:08.166Z,3.66
2023-02-25T07:32:10.311Z,3.62
2023-02-25T07:33:12.327Z,3.68
2023-02-25T07:34:14.677Z,3.78
2023-02-25T07:35:16.611Z,3.83
2023-02-25T07:36:18.702Z,3.81
2023-02-25T07:37:20.587Z,3.74
2023-02-25T07:38:22.326Z,3.70
2023-02-25T07:39:24.093Z,3.74
2023-02-25T07:40:26.064Z,3.83
2023-02-25T07:41:29.050Z,3.92
2023-02-25T07:42:30.916Z,3.99
2023-02-25T07:43:32.762Z,4.05
2023-02-25T07:44:36.210Z,4.08
2023-02-25T07:45:38.031Z,4.09
2023-02-25T07:46:41.262Z,4.12
2023-02-25T07:47:43.098Z,4.12
2023-02-25T07:48:44.869Z,4.10
2023-02-25T07:49:46.795Z,4.09
2023-02-25T07:50:48.594Z,4.06
2023-02-25T07:51:50.421Z,4.00
2023-02-25T07:52:52.253Z,4.00
2023-02-25T07:53:55.742Z,4.03
2023-02-25T07:54:57.778Z,4.08
2023-02-25T07:55:59.923Z,4.01
2023-02-25T07:57:01.864Z,3.98
2023-02-25T07:58:05.774Z,3.96
2023-02-25T07:59:08.705Z,3.96
2023-02-25T08:00:10.889Z,3.91
2023-02-25T08:01:26.142Z,3.89
2023-02-25T08:02:28.140Z,3.87
2023-02-25T08:03:30.212Z,3.81
2023-02-25T08:04:32.124Z,3.78
2023-02-25T08:05:34.710Z,3.65
2023-02-25T08:06:38.083Z,3.59
2023-02-25T08:07:39.836Z,3.62
2023-02-25T08:08:41.826Z,3.64
2023-02-25T08:09:43.881Z,3.66
2023-02-25T08:10:45.624Z,3.66
2023-02-25T08:11:47.536Z,3.61
2023-02-25T08:12:49.374Z,3.63
2023-02-25T08:13:51.728Z,3.67
2023-02-25T08:14:53.764Z,3.70
2023-02-25T08:15:55.595Z,3.72
2023-02-25T08:16:57.793Z,3.74
2023-02-25T08:17:59.663Z,3.76
2023-02-25T08:19:01.602Z,3.68
2023-02-25T08:20:03.769Z,3.71
2023-02-25T08:21:05.846Z,3.69
2023-02-25T08:22:12.102Z,3.68
2023-02-25T08:23:13.962Z,3.67
2023-02-25T08:24:15.808Z,3.64
2023-02-25T08:25:17.824Z,3.59
2023-02-25T08:26:20.868Z,3.57
2023-02-25T08:27:22.714Z,3.60
2023-02-25T08:28:25.307Z,3.59
2023-02-25T08:29:27.196Z,3.63
2023-02-25T08:30:28.885Z,3.69
2023-02-25T08:31:31.142Z,3.60
2023-02-25T08:32:35.513Z,3.58
2023-02-25T08:33:38.488Z,3.57
2023-02-25T08:34:48.809Z,3.63
2023-02-25T08:35:51.599Z,3.65
2023-02-25T08:36:53.648Z,3.64
2023-02-25T08:37:55.564Z,3.72
2023-02-25T08:39:00.373Z,3.80
2023-02-25T08:40:02.548Z,3.88
2023-02-25T08:41:05.067Z,3.89
2023-02-25T08:42:06.951Z,3.81
2023-02-25T08:43:09.038Z,3.75
2023-02-25T08:44:12.173Z,3.67
2023-02-25T08:45:17.166Z,3.62
2023-02-25T08:46:21.012Z,3.67
2023-02-25T08:47:23.250Z,3.76
2023-02-25T08:48:25.285Z,3.85
2023-02-25T08:49:27.066Z,3.93
2023-02-25T08:50:30.334Z,3.96
2023-02-25T08:51:35.954Z,4.03
2023-02-25T08:52:39.257Z,4.10
2023-02-25T08:53:42.412Z,4.20
2023-02-25T08:54:44.148Z,4.24
2023-02-25T08:55:47.648Z,4.18
2023-02-25T08:56:52.478Z,3.83
2023-02-25T08:57:55.371Z,3.63
2023-02-25T08:58:57.650Z,3.58
2023-02-25T08:59:59.577Z,3.68
2023-02-25T09:01:01.690Z,3.64
2023-02-25T09:02:06.524Z,3.68
2023-02-25T09:03:08.710Z,3.76
2023-02-25T09:04:15.237Z,3.87
2023-02-25T09:05:19.538Z,3.98
2023-02-25T09:06:30.420Z,4.09
2023-02-25T09:07:32.249Z,4.24
2023-02-25T09:08:34.121Z,4.36
2023-02-25T09:09:35.926Z,4.47
2023-02-25T09:10:49.451Z,4.57
2023-02-25T09:11:52.813Z,4.67
2023-02-25T09:12:54.864Z,4.79
2023-02-25T09:13:56.632Z,4.94
2023-02-25T09:14:58.523Z,5.07
2023-02-25T09:16:00.418Z,5.18
2023-02-25T09:17:07.842Z,5.25
2023-02-25T09:18:09.695Z,5.22
2023-02-25T09:19:12.725Z,5.12
2023-02-25T09:20:14.623Z,5.18
2023-02-25T09:21:16.443Z,5.27
2023-02-25T09:22:19.964Z,5.32
2023-02-25T09:23:21.814Z,5.41
2023-02-25T09:24:24.422Z,5.48
2023-02-25T09:25:26.366Z,5.54
2023-02-25T09:26:28.274Z,5.55
2023-02-25T09:27:30.144Z,5.55
2023-02-25T09:28:31.936Z,5.53
2023-02-25T09:29:35.105Z,5.54
2023-02-25T09:30:36.889Z,5.56
2023-02-25T09:31:40.033Z,5.59
2023-02-25T09:32:42.361Z,5.59
2023-02-25T09:33:44.699Z,5.52
2023-02-25T09:34:46.681Z,5.53
2023-02-25T09:35:48.558Z,5.55
2023-02-25T09:36:50.534Z,5.61
2023-02-25T09:37:52.344Z,5.63
2023-02-25T09:38:54.271Z,5.60
2023-02-25T09:39:56.097Z,5.62
2023-02-25T09:40:58.176Z,5.66
2023-02-25T09:42:07.914Z,5.62
2023-02-25T09:43:19.362Z,5.58
2023-02-25T09:44:21.184Z,5.62
2023-02-25T09:45:24.520Z,5.61
2023-02-25T09:46:28.283Z,5.63
2023-02-25T09:47:45.974Z,5.64
2023-02-25T09:49:09.637Z,5.63
2023-02-25T09:50:14.040Z,5.58
2023-02-25T09:51:23.233Z,5.59
2023-02-25T09:52:32.050Z,5.61
2023-02-25T09:53:41.946Z,5.58
2023-02-25T09:54:45.899Z,5.56
2023-02-25T09:55:52.435Z,5.46
2023-02-25T09:56:55.534Z,5.41
2023-02-25T09:57:57.265Z,5.48
2023-02-25T09:58:59.182Z,5.48
2023-02-25T10:00:01.065Z,5.52
2023-02-25T10:01:05.955Z,5.59
2023-02-25T10:02:29.844Z,5.59
2023-02-25T10:03:50.838Z,5.54
2023-02-25T10:05:07.112Z,5.57
2023-02-25T10:06:17.260Z,5.56
2023-02-25T10:07:22.750Z,5.64
2023-02-25T10:08:30.759Z,5.71
2023-02-25T10:09:51.673Z,5.78
2023-02-25T10:11:15.702Z,5.81
2023-02-25T10:12:43.816Z,5.80
2023-02-25T10:13:49.035Z,5.81
2023-02-25T10:15:09.003Z,5.88
2023-02-25T10:16:22.716Z,5.89
2023-02-25T10:17:30.600Z,5.96
2023-02-25T10:18:39.966Z,6.01
2023-02-25T10:20:00.358Z,5.94
2023-02-25T10:21:08.007Z,5.78
2023-02-25T10:22:46.037Z,5.79
2023-02-25T10:24:02.867Z,6.09
2023-02-25T10:25:14.629Z,6.23
2023-02-25T10:26:29.465Z,6.09
2023-02-25T10:27:37.666Z,6.22
2023-02-25T10:28:41.527Z,6.22
2023-02-25T10:29:49.724Z,6.26
2023-02-25T10:31:14.084Z,6.32
2023-02-25T10:32:19.539Z,6.43
2023-02-25T10:33:24.683Z,6.50
2023-02-25T10:34:28.122Z,6.46
2023-02-25T10:35:32.806Z,6.53
2023-02-25T10:36:36.779Z,6.59
2023-02-25T10:37:38.649Z,6.61
2023-02-25T10:38:45.544Z,6.56
2023-02-25T10:39:48.972Z,6.50
2023-02-25T10:40:51.748Z,6.36
2023-02-25T10:41:54.005Z,6.43
2023-02-25T10:42:59.757Z,6.56
2023-02-25T10:44:01.533Z,6.82
2023-02-25T10:45:08.628Z,6.95
2023-02-25T10:46:20.148Z,7.10
2023-02-25T10:47:31.095Z,7.23
2023-02-25T10:48:32.890Z,7.29
2023-02-25T10:49:38.691Z,7.22
2023-02-25T10:50:46.187Z,7.39
2023-02-25T10:51:59.091Z,7.50
2023-02-25T10:53:06.814Z,7.47
2023-02-25T10:54:14.157Z,7.32
2023-02-25T10:55:25.652Z,7.26
2023-02-25T10:56:31.439Z,7.25
2023-02-25T10:57:43.115Z,7.05
2023-02-25T10:58:47.482Z,6.80
2023-02-25T10:59:59.357Z,6.73
2023-02-25T11:01:05.005Z,6.82
2023-02-25T11:02:26.135Z,6.89
2023-02-25T11:03:30.374Z,6.98
2023-02-25T11:04:37.757Z,7.04
2023-02-25T11:05:41.298Z,7.04
2023-02-25T11:06:44.432Z,7.09
2023-02-25T11:07:47.820Z,7.15
2023-02-25T11:08:49.697Z,7.19
2023-02-25T11:10:06.472Z,7.35
2023-02-25T11:11:26.964Z,7.53
2023-02-25T11:12:32.346Z,7.58
2023-02-25T11:13:35.909Z,7.58
2023-02-25T11:14:38.863Z,7.62
2023-02-25T11:15:45.669Z,7.68
2023-02-25T11:16:47.961Z,7.75
2023-02-25T11:17:49.786Z,7.84
2023-02-25T11:18:53.632Z,7.85
2023-02-25T11:20:02.556Z,7.82
2023-02-25T11:21:09.442Z,7.81
2023-02-25T11:22:19.964Z,7.78
2023-02-25T11:23:23.983Z,7.66
2023-02-25T11:24:33.836Z,7.60
2023-02-25T11:25:39.216Z,7.58
2023-02-25T11:26:43.589Z,7.47
2023-02-25T11:27:49.978Z,7.43
2023-02-25T11:28:51.783Z,7.44
2023-02-25T11:29:53.797Z,7.47
2023-02-25T11:30:56.930Z,7.41
2023-02-25T11:32:08.609Z,7.48
2023-02-25T11:33:22.438Z,7.47
2023-02-25T11:34:27.134Z,7.25
2023-02-25T11:35:39.384Z,7.14
2023-02-25T11:36:41.336Z,7.13
2023-02-25T11:37:49.785Z,7.17
2023-02-25T11:39:04.410Z,7.16
2023-02-25T11:40:26.302Z,7.12
2023-02-25T11:41:31.676Z,7.11
2023-02-25T11:42:33.681Z,7.04
2023-02-25T11:43:35.994Z,6.94
2023-02-25T11:44:45.012Z,6.81
2023-02-25T11:45:52.102Z,6.76
2023-02-25T11:47:12.779Z,6.67
2023-02-25T11:48:19.849Z,6.65
2023-02-25T11:49:29.687Z,6.68
2023-02-25T11:50:54.466Z,6.70
2023-02-25T11:52:06.171Z,6.61
2023-02-25T11:53:15.000Z,6.54
2023-02-25T11:54:20.060Z,6.59
2023-02-25T11:55:37.819Z,6.65
2023-02-25T11:57:04.566Z,6.71
2023-02-25T11:58:25.224Z,6.67
2023-02-25T11:59:30.757Z,6.68
2023-02-25T12:00:50.790Z,6.66
2023-02-25T12:02:01.918Z,6.47
2023-02-25T12:03:18.942Z,6.36
2023-02-25T12:04:26.497Z,6.34
2023-02-25T12:05:43.890Z,6.32
2023-02-25T12:07:03.612Z,6.40
2023-02-25T12:08:15.688Z,6.43
2023-02-25T12:09:29.508Z,6.39
2023-02-25T12:10:34.430Z,6.41
2023-02-25T12:11:45.384Z,6.36
2023-02-25T12:13:03.330Z,6.21
2023-02-25T12:14:08.117Z,6.21
2023-02-25T12:15:48.554Z,6.21
2023-02-25T12:17:08.625Z,6.28
2023-02-25T12:18:13.368Z,6.22
2023-02-25T12:19:27.088Z,6.19
2023-02-25T12:20:29.756Z,6.20
2023-02-25T12:21:31.717Z,6.17
2023-02-25T12:22:34.737Z,6.13
2023-02-25T12:23:42.714Z,6.08
2023-02-25T12:24:44.672Z,6.08
2023-02-25T12:25:58.395Z,6.13
2023-02-25T12:27:06.370Z,6.11
2023-02-25T12:28:16.940Z,5.97
2023-02-25T12:29:21.530Z,5.98
2023-02-25T12:30:33.087Z,6.05
2023-02-25T12:31:47.256Z,6.07
2023-02-25T12:32:49.082Z,6.06
2023-02-25T12:33:53.741Z,6.09
2023-02-25T12:35:12.867Z,6.08
2023-02-25T12:36:33.332Z,6.09
2023-02-25T12:37:58.570Z,6.15
2023-02-25T12:39:19.998Z,6.18
2023-02-25T12:40:40.296Z,6.20
2023-02-25T12:42:09.577Z,6.15
2023-02-25T12:43:30.206Z,6.06
2023-02-25T12:44:38.493Z,6.07
2023-02-25T12:46:10.069Z,6.10
2023-02-25T12:47:18.181Z,6.12
2023-02-25T12:48:38.994Z,6.05
2023-02-25T12:49:41.075Z,6.08
2023-02-25T12:50:58.400Z,6.14
2023-02-25T12:52:20.747Z,6.06
2023-02-25T12:53:42.772Z,6.09
2023-02-25T12:54:50.544Z,6.08
2023-02-25T12:56:08.240Z,6.07
2023-02-25T12:57:12.875Z,6.13
2023-02-25T12:58:36.256Z,6.07
2023-02-25T12:59:41.164Z,6.03
2023-02-25T13:00:51.825Z,6.08
2023-02-25T13:02:12.541Z,6.16
2023-02-25T13:03:21.602Z,6.25
2023-02-25T13:04:35.884Z,6.27
2023-02-25T13:05:57.574Z,6.22
2023-02-25T13:07:22.959Z,6.18
2023-02-25T13:08:43.283Z,6.15
2023-02-25T13:10:04.086Z,6.06
2023-02-25T13:11:24.439Z,5.96
2023-02-25T13:12:40.970Z,5.99
2023-02-25T13:13:46.607Z,6.06
2023-02-25T13:15:01.973Z,6.09
2023-02-25T13:16:03.870Z,6.08
2023-02-25T13:17:15.894Z,6.13
2023-02-25T13:18:20.696Z,6.17
2023-02-25T13:19:42.906Z,6.23
2023-02-25T13:21:03.086Z,6.27
2023-02-25T13:22:25.615Z,6.29
2023-02-25T13:23:30.464Z,6.30
2023-02-25T13:24:32.217Z,6.27
2023-02-25T13:26:00.711Z,6.11
2023-02-25T13:27:11.520Z,5.77
2023-02-25T13:28:32.361Z,5.77
2023-02-25T13:29:53.033Z,5.88
2023-02-25T13:31:01.323Z,5.97
2023-02-25T13:32:12.431Z,5.87
2023-02-25T13:33:31.553Z,5.91
2023-02-25T13:34:47.469Z,6.00
2023-02-25T13:35:50.420Z,6.09
2023-02-25T13:37:11.127Z,6.10
2023-02-25T13:38:31.702Z,6.14
2023-02-25T13:39:51.757Z,6.09
2023-02-25T13:40:56.908Z,6.12
2023-02-25T13:42:23.728Z,6.13
2023-02-25T13:43:52.070Z,6.12
2023-02-25T13:44:57.312Z,6.06
2023-02-25T13:46:17.748Z,6.02
2023-02-25T13:47:28.267Z,6.00
2023-02-25T13:48:33.123Z,5.94
2023-02-25T13:49:52.071Z,5.90
2023-02-25T13:51:12.235Z,5.92
2023-02-25T13:52:19.993Z,5.93
2023-02-25T13:53:40.481Z,5.77
2023-02-25T13:54:54.291Z,5.65
2023-02-25T13:56:14.553Z,5.66
2023-02-25T13:57:35.953Z,5.65
2023-02-25T13:58:46.992Z,5.61
2023-02-25T13:59:58.123Z,5.66
2023-02-25T14:01:00.123Z,5.69
2023-02-25T14:02:12.646Z,5.64
2023-02-25T14:03:29.823Z,5.66
2023-02-25T14:04:50.208Z,5.72
2023-02-25T14:06:04.663Z,5.75
2023-02-25T14:07:09.294Z,5.73
2023-02-25T14:08:22.256Z,5.65
2023-02-25T14:09:46.830Z,5.64
2023-02-25T14:10:53.700Z,5.57
2023-02-25T14:12:13.120Z,5.60
2023-02-25T14:13:33.285Z,5.66
2023-02-25T14:14:35.356Z,5.66
2023-02-25T14:15:48.291Z,5.57
2023-02-25T14:16:52.415Z,5.55
2023-02-25T14:18:04.200Z,5.62
2023-02-25T14:19:06.230Z,5.65
2023-02-25T14:20:17.214Z,5.71
2023-02-25T14:21:41.032Z,5.72
2023-02-25T14:23:03.129Z,5.78
2023-02-25T14:24:24.898Z,5.78
2023-02-25T14:25:27.438Z,5.68
2023-02-25T14:26:32.552Z,5.70
2023-02-25T14:27:40.756Z,5.71
2023-02-25T14:28:49.319Z,5.57
2023-02-25T14:30:15.584Z,5.37
2023-02-25T14:31:36.660Z,5.34
2023-02-25T14:32:47.872Z,5.26
2023-02-25T14:33:52.994Z,5.19
2023-02-25T14:35:04.080Z,5.28
2023-02-25T14:36:23.456Z,5.30
2023-02-25T14:37:34.548Z,5.32
2023-02-25T14:38:55.652Z,5.33